sensor_id;sensor_type;location;lat;lon;timestamp;P1;durP1;ratioP1;P2;durP2;ratioP2
75441;SDS011;64019;48.312;14.226;2024-02-04T00:02:08;3.47;;;2.30;;
75441;SDS011;64019;48.312;14.226;2024-02-04T00:04:39;3.17;;;2.47;;
75441;SDS011;64019;48.312;14.226;2024-02-04T00:07:05;4.37;;;2.90;;
75441;SDS011;64019;48.312;14.226;2024-02-04T00:09:31;4.37;;;3.37;;
75441;SDS011;64019;48.312;14.226;2024-02-04T00:11:56;5.40;;;3.10;;
75441;SDS011;64019;48.312;14.226;2024-02-04T00:14:23;3.67;;;2.70;;
75441;SDS011;64019;48.312;14.226;2024-02-04T00:16:49;5.30;;;3.30;;
75441;SDS011;64019;48.312;14.226;2024-02-04T00:19:15;4.30;;;3.10;;
75441;SDS011;64019;48.312;14.226;2024-02-04T00:21:40;5.37;;;3.50;;
75441;SDS011;64019;48.312;14.226;2024-02-04T00:24:06;5.00;;;3.33;;
75441;SDS011;64019;48.312;14.226;2024-02-04T00:26:32;4.83;;;3.57;;
75441;SDS011;64019;48.312;14.226;2024-02-04T00:28:57;4.83;;;3.60;;
75441;SDS011;64019;48.312;14.226;2024-02-04T00:31:23;6.57;;;4.07;;
75441;SDS011;64019;48.312;14.226;2024-02-04T00:33:49;5.03;;;3.90;;
75441;SDS011;64019;48.312;14.226;2024-02-04T00:36:15;6.77;;;4.40;;
75441;SDS011;64019;48.312;14.226;2024-02-04T00:38:41;4.93;;;3.57;;
75441;SDS011;64019;48.312;14.226;2024-02-04T00:41:09;6.83;;;4.33;;
75441;SDS011;64019;48.312;14.226;2024-02-04T00:43:35;5.27;;;4.00;;
75441;SDS011;64019;48.312;14.226;2024-02-04T00:46:00;8.27;;;5.03;;
75441;SDS011;64019;48.312;14.226;2024-02-04T00:48:26;8.33;;;5.33;;
75441;SDS011;64019;48.312;14.226;2024-02-04T00:50:53;8.27;;;4.27;;
75441;SDS011;64019;48.312;14.226;2024-02-04T00:53:20;8.97;;;4.00;;
75441;SDS011;64019;48.312;14.226;2024-02-04T00:55:46;6.53;;;4.73;;
75441;SDS011;64019;48.312;14.226;2024-02-04T00:58:11;6.07;;;4.47;;
75441;SDS011;64019;48.312;14.226;2024-02-04T01:00:37;9.20;;;4.53;;
75441;SDS011;64019;48.312;14.226;2024-02-04T01:03:03;9.60;;;5.50;;
75441;SDS011;64019;48.312;14.226;2024-02-04T01:05:28;7.97;;;4.70;;
75441;SDS011;64019;48.312;14.226;2024-02-04T01:07:54;7.23;;;4.87;;
75441;SDS011;64019;48.312;14.226;2024-02-04T01:10:20;7.03;;;4.50;;
75441;SDS011;64019;48.312;14.226;2024-02-04T01:12:46;9.47;;;4.70;;
75441;SDS011;64019;48.312;14.226;2024-02-04T01:15:12;7.67;;;4.90;;
75441;SDS011;64019;48.312;14.226;2024-02-04T01:17:38;6.93;;;4.77;;
75441;SDS011;64019;48.312;14.226;2024-02-04T01:20:05;10.40;;;5.37;;
75441;SDS011;64019;48.312;14.226;2024-02-04T01:22:31;9.47;;;5.50;;
75441;SDS011;64019;48.312;14.226;2024-02-04T01:24:57;7.90;;;4.90;;
75441;SDS011;64019;48.312;14.226;2024-02-04T01:27:23;9.33;;;5.53;;
75441;SDS011;64019;48.312;14.226;2024-02-04T01:29:48;7.87;;;4.80;;
75441;SDS011;64019;48.312;14.226;2024-02-04T01:32:14;7.10;;;4.97;;
75441;SDS011;64019;48.312;14.226;2024-02-04T01:34:41;8.67;;;5.43;;
75441;SDS011;64019;48.312;14.226;2024-02-04T01:37:06;10.30;;;4.97;;
75441;SDS011;64019;48.312;14.226;2024-02-04T01:39:32;8.63;;;4.90;;
75441;SDS011;64019;48.312;14.226;2024-02-04T01:41:59;9.57;;;5.40;;
75441;SDS011;64019;48.312;14.226;2024-02-04T01:44:26;7.47;;;4.87;;
75441;SDS011;64019;48.312;14.226;2024-02-04T01:46:52;8.87;;;5.27;;
75441;SDS011;64019;48.312;14.226;2024-02-04T01:49:19;10.70;;;5.20;;
75441;SDS011;64019;48.312;14.226;2024-02-04T01:51:45;10.57;;;6.33;;
75441;SDS011;64019;48.312;14.226;2024-02-04T01:54:11;8.40;;;5.03;;
75441;SDS011;64019;48.312;14.226;2024-02-04T01:56:36;6.73;;;4.33;;
75441;SDS011;64019;48.312;14.226;2024-02-04T01:59:02;9.10;;;6.00;;
75441;SDS011;64019;48.312;14.226;2024-02-04T02:01:28;9.30;;;6.17;;
75441;SDS011;64019;48.312;14.226;2024-02-04T02:03:54;8.50;;;5.70;;
75441;SDS011;64019;48.312;14.226;2024-02-04T02:06:22;9.63;;;5.57;;
75441;SDS011;64019;48.312;14.226;2024-02-04T02:08:48;7.63;;;5.17;;
75441;SDS011;64019;48.312;14.226;2024-02-04T02:11:21;7.40;;;5.37;;
75441;SDS011;64019;48.312;14.226;2024-02-04T02:13:53;10.40;;;6.00;;
75441;SDS011;64019;48.312;14.226;2024-02-04T02:16:30;9.93;;;5.30;;
75441;SDS011;64019;48.312;14.226;2024-02-04T02:19:00;7.47;;;5.20;;
75441;SDS011;64019;48.312;14.226;2024-02-04T02:22:07;10.03;;;5.47;;
75441;SDS011;64019;48.312;14.226;2024-02-04T02:24:42;9.30;;;5.73;;
75441;SDS011;64019;48.312;14.226;2024-02-04T02:27:09;8.30;;;5.60;;
75441;SDS011;64019;48.312;14.226;2024-02-04T02:29:34;11.43;;;6.43;;
75441;SDS011;64019;48.312;14.226;2024-02-04T02:32:01;9.73;;;6.13;;
75441;SDS011;64019;48.312;14.226;2024-02-04T02:34:28;8.70;;;5.60;;
75441;SDS011;64019;48.312;14.226;2024-02-04T02:42:32;9.40;;;5.63;;
75441;SDS011;64019;48.312;14.226;2024-02-04T02:44:58;9.93;;;6.10;;
75441;SDS011;64019;48.312;14.226;2024-02-04T02:47:25;9.57;;;5.73;;
75441;SDS011;64019;48.312;14.226;2024-02-04T02:49:54;10.20;;;5.87;;
75441;SDS011;64019;48.312;14.226;2024-02-04T02:52:20;10.47;;;6.10;;
75441;SDS011;64019;48.312;14.226;2024-02-04T02:54:46;9.77;;;5.80;;
75441;SDS011;64019;48.312;14.226;2024-02-04T02:57:12;11.23;;;5.63;;
75441;SDS011;64019;48.312;14.226;2024-02-04T02:59:37;10.27;;;6.03;;
75441;SDS011;64019;48.312;14.226;2024-02-04T03:02:03;10.63;;;6.27;;
75441;SDS011;64019;48.312;14.226;2024-02-04T03:04:29;9.07;;;6.03;;
75441;SDS011;64019;48.312;14.226;2024-02-04T03:06:55;11.23;;;5.47;;
75441;SDS011;64019;48.312;14.226;2024-02-04T03:09:21;11.20;;;5.93;;
75441;SDS011;64019;48.312;14.226;2024-02-04T03:11:46;9.50;;;6.10;;
75441;SDS011;64019;48.312;14.226;2024-02-04T03:14:16;11.40;;;6.33;;
75441;SDS011;64019;48.312;14.226;2024-02-04T03:16:46;7.77;;;5.13;;
75441;SDS011;64019;48.312;14.226;2024-02-04T03:19:12;8.60;;;5.60;;
75441;SDS011;64019;48.312;14.226;2024-02-04T03:21:37;7.60;;;4.37;;
75441;SDS011;64019;48.312;14.226;2024-02-04T03:24:03;9.10;;;5.60;;
75441;SDS011;64019;48.312;14.226;2024-02-04T03:26:29;10.73;;;5.50;;
75441;SDS011;64019;48.312;14.226;2024-02-04T03:28:55;7.87;;;5.20;;
75441;SDS011;64019;48.312;14.226;2024-02-04T03:31:21;8.07;;;5.37;;
75441;SDS011;64019;48.312;14.226;2024-02-04T03:33:50;7.90;;;5.10;;
75441;SDS011;64019;48.312;14.226;2024-02-04T03:36:18;8.60;;;5.57;;
75441;SDS011;64019;48.312;14.226;2024-02-04T03:38:44;8.53;;;5.23;;
75441;SDS011;64019;48.312;14.226;2024-02-04T03:41:10;7.43;;;5.30;;
75441;SDS011;64019;48.312;14.226;2024-02-04T03:43:36;8.73;;;5.33;;
75441;SDS011;64019;48.312;14.226;2024-02-04T03:46:02;7.97;;;5.37;;
75441;SDS011;64019;48.312;14.226;2024-02-04T03:48:28;10.33;;;5.80;;
75441;SDS011;64019;48.312;14.226;2024-02-04T03:50:54;8.20;;;5.40;;
75441;SDS011;64019;48.312;14.226;2024-02-04T03:53:21;9.63;;;5.53;;
75441;SDS011;64019;48.312;14.226;2024-02-04T03:55:48;9.03;;;5.77;;
75441;SDS011;64019;48.312;14.226;2024-02-04T03:58:15;9.10;;;5.47;;
75441;SDS011;64019;48.312;14.226;2024-02-04T04:00:40;8.87;;;6.20;;
75441;SDS011;64019;48.312;14.226;2024-02-04T04:03:06;11.30;;;6.17;;
75441;SDS011;64019;48.312;14.226;2024-02-04T04:05:32;8.67;;;5.90;;
75441;SDS011;64019;48.312;14.226;2024-02-04T04:07:58;8.47;;;5.63;;
75441;SDS011;64019;48.312;14.226;2024-02-04T04:10:23;8.97;;;5.87;;
75441;SDS011;64019;48.312;14.226;2024-02-04T04:12:49;8.50;;;6.40;;
75441;SDS011;64019;48.312;14.226;2024-02-04T04:15:15;10.33;;;6.30;;
75441;SDS011;64019;48.312;14.226;2024-02-04T04:17:41;11.43;;;6.03;;
75441;SDS011;64019;48.312;14.226;2024-02-04T04:20:07;9.90;;;6.30;;
75441;SDS011;64019;48.312;14.226;2024-02-04T04:22:33;9.97;;;5.90;;
75441;SDS011;64019;48.312;14.226;2024-02-04T04:24:59;12.43;;;6.83;;
75441;SDS011;64019;48.312;14.226;2024-02-04T04:27:24;9.03;;;6.27;;
75441;SDS011;64019;48.312;14.226;2024-02-04T04:29:50;8.97;;;5.53;;
75441;SDS011;64019;48.312;14.226;2024-02-04T04:32:16;10.37;;;5.93;;
75441;SDS011;64019;48.312;14.226;2024-02-04T04:34:41;11.27;;;6.60;;
75441;SDS011;64019;48.312;14.226;2024-02-04T04:37:09;8.50;;;5.53;;
75441;SDS011;64019;48.312;14.226;2024-02-04T04:39:34;8.67;;;5.50;;
75441;SDS011;64019;48.312;14.226;2024-02-04T04:42:00;9.30;;;5.57;;
75441;SDS011;64019;48.312;14.226;2024-02-04T04:44:26;10.20;;;5.50;;
75441;SDS011;64019;48.312;14.226;2024-02-04T04:46:52;10.00;;;6.57;;
75441;SDS011;64019;48.312;14.226;2024-02-04T04:49:18;8.90;;;5.17;;
75441;SDS011;64019;48.312;14.226;2024-02-04T04:51:44;10.20;;;5.83;;
75441;SDS011;64019;48.312;14.226;2024-02-04T04:54:13;13.13;;;5.67;;
75441;SDS011;64019;48.312;14.226;2024-02-04T04:56:39;6.93;;;4.83;;
75441;SDS011;64019;48.312;14.226;2024-02-04T04:59:06;10.57;;;5.87;;
75441;SDS011;64019;48.312;14.226;2024-02-04T05:01:32;10.60;;;6.13;;
75441;SDS011;64019;48.312;14.226;2024-02-04T05:03:58;7.83;;;4.80;;
75441;SDS011;64019;48.312;14.226;2024-02-04T05:06:25;9.63;;;6.00;;
75441;SDS011;64019;48.312;14.226;2024-02-04T05:08:51;9.23;;;5.20;;
75441;SDS011;64019;48.312;14.226;2024-02-04T05:11:17;14.37;;;5.27;;
75441;SDS011;64019;48.312;14.226;2024-02-04T05:13:44;10.33;;;5.10;;
75441;SDS011;64019;48.312;14.226;2024-02-04T05:16:09;7.90;;;4.83;;
75441;SDS011;64019;48.312;14.226;2024-02-04T05:18:36;7.17;;;5.17;;
75441;SDS011;64019;48.312;14.226;2024-02-04T05:21:02;9.57;;;5.10;;
75441;SDS011;64019;48.312;14.226;2024-02-04T05:23:29;8.30;;;5.27;;
75441;SDS011;64019;48.312;14.226;2024-02-04T05:25:56;8.77;;;5.30;;
75441;SDS011;64019;48.312;14.226;2024-02-04T05:28:22;11.03;;;5.40;;
75441;SDS011;64019;48.312;14.226;2024-02-04T05:30:47;8.33;;;4.93;;
75441;SDS011;64019;48.312;14.226;2024-02-04T05:33:13;8.97;;;5.23;;
75441;SDS011;64019;48.312;14.226;2024-02-04T05:35:43;8.27;;;4.83;;
75441;SDS011;64019;48.312;14.226;2024-02-04T05:38:09;5.70;;;4.23;;
75441;SDS011;64019;48.312;14.226;2024-02-04T05:40:35;6.97;;;4.20;;
75441;SDS011;64019;48.312;14.226;2024-02-04T05:43:01;6.77;;;4.13;;
75441;SDS011;64019;48.312;14.226;2024-02-04T05:45:31;7.77;;;4.07;;
75441;SDS011;64019;48.312;14.226;2024-02-04T05:48:00;7.83;;;3.90;;
75441;SDS011;64019;48.312;14.226;2024-02-04T05:50:26;7.73;;;4.37;;
75441;SDS011;64019;48.312;14.226;2024-02-04T05:52:51;7.03;;;3.87;;
75441;SDS011;64019;48.312;14.226;2024-02-04T05:55:17;5.53;;;3.40;;
75441;SDS011;64019;48.312;14.226;2024-02-04T05:57:44;6.57;;;3.37;;
75441;SDS011;64019;48.312;14.226;2024-02-04T06:00:10;5.83;;;4.00;;
75441;SDS011;64019;48.312;14.226;2024-02-04T06:02:37;6.07;;;3.47;;
75441;SDS011;64019;48.312;14.226;2024-02-04T06:05:04;6.73;;;3.90;;
75441;SDS011;64019;48.312;14.226;2024-02-04T06:07:31;6.47;;;3.60;;
75441;SDS011;64019;48.312;14.226;2024-02-04T06:09:58;5.00;;;3.13;;
75441;SDS011;64019;48.312;14.226;2024-02-04T06:12:25;5.47;;;3.30;;
75441;SDS011;64019;48.312;14.226;2024-02-04T06:14:52;6.10;;;3.63;;
75441;SDS011;64019;48.312;14.226;2024-02-04T06:17:17;6.30;;;3.60;;
75441;SDS011;64019;48.312;14.226;2024-02-04T06:19:43;6.57;;;3.87;;
75441;SDS011;64019;48.312;14.226;2024-02-04T06:22:09;4.50;;;2.97;;
75441;SDS011;64019;48.312;14.226;2024-02-04T06:24:35;4.97;;;3.30;;
75441;SDS011;64019;48.312;14.226;2024-02-04T06:27:02;5.57;;;3.30;;
75441;SDS011;64019;48.312;14.226;2024-02-04T06:29:30;9.03;;;3.60;;
75441;SDS011;64019;48.312;14.226;2024-02-04T06:31:57;5.83;;;3.67;;
75441;SDS011;64019;48.312;14.226;2024-02-04T06:34:23;5.97;;;3.47;;
75441;SDS011;64019;48.312;14.226;2024-02-04T06:36:49;4.83;;;3.33;;
75441;SDS011;64019;48.312;14.226;2024-02-04T06:39:15;5.53;;;3.33;;
75441;SDS011;64019;48.312;14.226;2024-02-04T06:41:42;8.67;;;3.63;;
75441;SDS011;64019;48.312;14.226;2024-02-04T06:44:07;4.90;;;3.50;;
75441;SDS011;64019;48.312;14.226;2024-02-04T06:46:33;8.93;;;4.20;;
75441;SDS011;64019;48.312;14.226;2024-02-04T06:48:59;6.30;;;3.30;;
75441;SDS011;64019;48.312;14.226;2024-02-04T06:51:26;6.10;;;3.70;;
75441;SDS011;64019;48.312;14.226;2024-02-04T06:53:52;6.13;;;3.23;;
75441;SDS011;64019;48.312;14.226;2024-02-04T06:56:17;5.53;;;3.00;;
75441;SDS011;64019;48.312;14.226;2024-02-04T06:58:43;6.03;;;3.17;;
75441;SDS011;64019;48.312;14.226;2024-02-04T07:01:11;5.27;;;3.10;;
75441;SDS011;64019;48.312;14.226;2024-02-04T07:03:37;5.13;;;3.03;;
75441;SDS011;64019;48.312;14.226;2024-02-04T07:06:03;4.70;;;2.80;;
75441;SDS011;64019;48.312;14.226;2024-02-04T07:08:29;4.20;;;2.80;;
75441;SDS011;64019;48.312;14.226;2024-02-04T07:10:55;4.60;;;3.03;;
75441;SDS011;64019;48.312;14.226;2024-02-04T07:13:21;5.97;;;2.90;;
75441;SDS011;64019;48.312;14.226;2024-02-04T07:15:47;4.73;;;3.07;;
75441;SDS011;64019;48.312;14.226;2024-02-04T07:18:13;5.50;;;3.50;;
75441;SDS011;64019;48.312;14.226;2024-02-04T07:20:38;5.93;;;2.93;;
75441;SDS011;64019;48.312;14.226;2024-02-04T07:23:04;4.90;;;3.10;;
75441;SDS011;64019;48.312;14.226;2024-02-04T07:25:30;4.77;;;3.20;;
75441;SDS011;64019;48.312;14.226;2024-02-04T07:27:57;6.07;;;3.23;;
75441;SDS011;64019;48.312;14.226;2024-02-04T07:30:23;6.00;;;2.93;;
75441;SDS011;64019;48.312;14.226;2024-02-04T07:32:49;5.53;;;3.37;;
75441;SDS011;64019;48.312;14.226;2024-02-04T07:35:16;5.63;;;2.97;;
75441;SDS011;64019;48.312;14.226;2024-02-04T07:37:42;5.17;;;3.23;;
75441;SDS011;64019;48.312;14.226;2024-02-04T07:40:07;3.63;;;2.63;;
75441;SDS011;64019;48.312;14.226;2024-02-04T07:42:34;5.70;;;3.17;;
75441;SDS011;64019;48.312;14.226;2024-02-04T07:45:01;6.23;;;3.00;;
75441;SDS011;64019;48.312;14.226;2024-02-04T07:47:35;3.57;;;2.47;;
75441;SDS011;64019;48.312;14.226;2024-02-04T07:50:01;5.40;;;2.97;;
75441;SDS011;64019;48.312;14.226;2024-02-04T07:52:27;6.27;;;3.13;;
75441;SDS011;64019;48.312;14.226;2024-02-04T07:54:52;4.60;;;3.00;;
75441;SDS011;64019;48.312;14.226;2024-02-04T07:57:18;4.00;;;2.73;;
75441;SDS011;64019;48.312;14.226;2024-02-04T07:59:44;4.10;;;3.10;;
75441;SDS011;64019;48.312;14.226;2024-02-04T08:02:09;5.10;;;2.90;;
75441;SDS011;64019;48.312;14.226;2024-02-04T08:04:35;4.83;;;2.97;;
75441;SDS011;64019;48.312;14.226;2024-02-04T08:07:04;4.20;;;2.97;;
75441;SDS011;64019;48.312;14.226;2024-02-04T08:09:31;4.87;;;3.20;;
75441;SDS011;64019;48.312;14.226;2024-02-04T08:11:57;6.30;;;3.63;;
75441;SDS011;64019;48.312;14.226;2024-02-04T08:14:22;4.43;;;2.80;;
75441;SDS011;64019;48.312;14.226;2024-02-04T08:16:48;3.73;;;2.47;;
75441;SDS011;64019;48.312;14.226;2024-02-04T08:19:14;5.20;;;3.33;;
75441;SDS011;64019;48.312;14.226;2024-02-04T08:21:40;4.67;;;2.77;;
75441;SDS011;64019;48.312;14.226;2024-02-04T08:24:05;4.80;;;2.93;;
75441;SDS011;64019;48.312;14.226;2024-02-04T08:26:33;4.07;;;2.57;;
75441;SDS011;64019;48.312;14.226;2024-02-04T08:28:59;5.00;;;2.70;;
75441;SDS011;64019;48.312;14.226;2024-02-04T08:31:26;4.20;;;2.57;;
75441;SDS011;64019;48.312;14.226;2024-02-04T08:33:52;4.03;;;2.57;;
75441;SDS011;64019;48.312;14.226;2024-02-04T08:36:19;3.73;;;2.43;;
75441;SDS011;64019;48.312;14.226;2024-02-04T08:38:45;5.90;;;2.80;;
75441;SDS011;64019;48.312;14.226;2024-02-04T08:41:12;3.77;;;2.30;;
75441;SDS011;64019;48.312;14.226;2024-02-04T08:43:38;5.13;;;3.23;;
75441;SDS011;64019;48.312;14.226;2024-02-04T08:46:06;4.03;;;2.47;;
75441;SDS011;64019;48.312;14.226;2024-02-04T08:48:31;4.40;;;2.93;;
75441;SDS011;64019;48.312;14.226;2024-02-04T08:50:58;5.90;;;2.47;;
75441;SDS011;64019;48.312;14.226;2024-02-04T08:53:25;4.67;;;2.90;;
75441;SDS011;64019;48.312;14.226;2024-02-04T08:55:51;3.57;;;2.70;;
75441;SDS011;64019;48.312;14.226;2024-02-04T08:58:16;9.43;;;3.40;;
75441;SDS011;64019;48.312;14.226;2024-02-04T09:00:42;3.97;;;2.50;;
75441;SDS011;64019;48.312;14.226;2024-02-04T09:03:08;4.50;;;2.20;;
75441;SDS011;64019;48.312;14.226;2024-02-04T09:05:34;4.67;;;2.60;;
75441;SDS011;64019;48.312;14.226;2024-02-04T09:07:59;4.37;;;2.27;;
75441;SDS011;64019;48.312;14.226;2024-02-04T09:10:26;3.77;;;2.70;;
75441;SDS011;64019;48.312;14.226;2024-02-04T09:12:52;2.77;;;1.97;;
75441;SDS011;64019;48.312;14.226;2024-02-04T09:15:18;3.30;;;2.10;;
75441;SDS011;64019;48.312;14.226;2024-02-04T09:17:43;5.83;;;2.57;;
75441;SDS011;64019;48.312;14.226;2024-02-04T09:20:09;3.73;;;2.37;;
75441;SDS011;64019;48.312;14.226;2024-02-04T09:22:42;3.13;;;2.33;;
75441;SDS011;64019;48.312;14.226;2024-02-04T09:25:09;4.83;;;2.40;;
75441;SDS011;64019;48.312;14.226;2024-02-04T09:27:34;3.47;;;2.17;;
75441;SDS011;64019;48.312;14.226;2024-02-04T09:30:01;5.70;;;2.20;;
75441;SDS011;64019;48.312;14.226;2024-02-04T09:32:27;3.37;;;1.97;;
75441;SDS011;64019;48.312;14.226;2024-02-04T09:34:53;4.60;;;2.57;;
75441;SDS011;64019;48.312;14.226;2024-02-04T09:37:19;3.90;;;2.17;;
75441;SDS011;64019;48.312;14.226;2024-02-04T09:39:44;5.37;;;2.40;;
75441;SDS011;64019;48.312;14.226;2024-02-04T09:42:11;3.73;;;2.73;;
75441;SDS011;64019;48.312;14.226;2024-02-04T09:44:46;5.33;;;2.20;;
75441;SDS011;64019;48.312;14.226;2024-02-04T09:47:16;3.50;;;2.50;;
75441;SDS011;64019;48.312;14.226;2024-02-04T09:49:42;6.77;;;2.70;;
75441;SDS011;64019;48.312;14.226;2024-02-04T09:52:09;3.93;;;2.40;;
75441;SDS011;64019;48.312;14.226;2024-02-04T09:54:40;3.27;;;2.30;;
75441;SDS011;64019;48.312;14.226;2024-02-04T09:57:12;4.67;;;2.70;;
75441;SDS011;64019;48.312;14.226;2024-02-04T09:59:39;4.90;;;2.80;;
75441;SDS011;64019;48.312;14.226;2024-02-04T10:02:06;3.40;;;2.20;;
75441;SDS011;64019;48.312;14.226;2024-02-04T10:04:33;4.27;;;2.30;;
75441;SDS011;64019;48.312;14.226;2024-02-04T10:06:59;4.50;;;2.50;;
75441;SDS011;64019;48.312;14.226;2024-02-04T10:09:25;4.40;;;2.33;;
75441;SDS011;64019;48.312;14.226;2024-02-04T10:11:51;4.13;;;2.13;;
75441;SDS011;64019;48.312;14.226;2024-02-04T10:14:17;4.37;;;2.43;;
75441;SDS011;64019;48.312;14.226;2024-02-04T10:16:45;3.43;;;1.80;;
75441;SDS011;64019;48.312;14.226;2024-02-04T10:19:11;3.70;;;2.40;;
75441;SDS011;64019;48.312;14.226;2024-02-04T10:21:37;3.87;;;1.87;;
75441;SDS011;64019;48.312;14.226;2024-02-04T10:24:02;2.90;;;1.87;;
75441;SDS011;64019;48.312;14.226;2024-02-04T10:26:29;4.80;;;2.20;;
75441;SDS011;64019;48.312;14.226;2024-02-04T10:28:59;3.00;;;2.03;;
75441;SDS011;64019;48.312;14.226;2024-02-04T10:31:26;4.30;;;1.93;;
75441;SDS011;64019;48.312;14.226;2024-02-04T10:33:52;3.83;;;2.03;;
75441;SDS011;64019;48.312;14.226;2024-02-04T10:36:18;4.07;;;1.97;;
75441;SDS011;64019;48.312;14.226;2024-02-04T10:38:43;3.27;;;1.97;;
75441;SDS011;64019;48.312;14.226;2024-02-04T10:41:13;4.00;;;1.90;;
75441;SDS011;64019;48.312;14.226;2024-02-04T10:43:40;2.53;;;1.50;;
75441;SDS011;64019;48.312;14.226;2024-02-04T10:48:43;2.53;;;1.60;;
75441;SDS011;64019;48.312;14.226;2024-02-04T10:51:16;2.57;;;1.60;;
75441;SDS011;64019;48.312;14.226;2024-02-04T10:53:45;2.90;;;1.97;;
75441;SDS011;64019;48.312;14.226;2024-02-04T10:56:16;2.23;;;1.73;;
75441;SDS011;64019;48.312;14.226;2024-02-04T10:58:47;3.03;;;1.90;;
75441;SDS011;64019;48.312;14.226;2024-02-04T11:01:13;3.07;;;1.80;;
75441;SDS011;64019;48.312;14.226;2024-02-04T11:03:40;3.53;;;2.00;;
75441;SDS011;64019;48.312;14.226;2024-02-04T11:06:07;3.73;;;2.07;;
75441;SDS011;64019;48.312;14.226;2024-02-04T11:08:34;1.77;;;1.20;;
75441;SDS011;64019;48.312;14.226;2024-02-04T11:11:00;2.27;;;1.40;;
75441;SDS011;64019;48.312;14.226;2024-02-04T11:13:32;3.60;;;1.33;;
75441;SDS011;64019;48.312;14.226;2024-02-04T11:16:00;3.30;;;1.70;;
75441;SDS011;64019;48.312;14.226;2024-02-04T11:18:33;5.27;;;2.03;;
75441;SDS011;64019;48.312;14.226;2024-02-04T11:26:42;3.07;;;1.50;;
75441;SDS011;64019;48.312;14.226;2024-02-04T11:29:09;2.37;;;1.43;;
75441;SDS011;64019;48.312;14.226;2024-02-04T11:31:38;1.90;;;1.43;;
75441;SDS011;64019;48.312;14.226;2024-02-04T11:34:04;1.97;;;1.40;;
75441;SDS011;64019;48.312;14.226;2024-02-04T11:36:37;2.53;;;1.53;;
75441;SDS011;64019;48.312;14.226;2024-02-04T11:39:12;1.83;;;1.40;;
75441;SDS011;64019;48.312;14.226;2024-02-04T11:41:46;3.37;;;1.60;;
75441;SDS011;64019;48.312;14.226;2024-02-04T11:44:12;2.43;;;1.60;;
75441;SDS011;64019;48.312;14.226;2024-02-04T11:46:48;2.57;;;1.47;;
75441;SDS011;64019;48.312;14.226;2024-02-04T11:49:15;3.80;;;1.63;;
75441;SDS011;64019;48.312;14.226;2024-02-04T11:51:48;1.23;;;0.93;;
75441;SDS011;64019;48.312;14.226;2024-02-04T11:54:19;2.37;;;1.40;;
75441;SDS011;64019;48.312;14.226;2024-02-04T11:56:45;1.40;;;1.10;;
75441;SDS011;64019;48.312;14.226;2024-02-04T11:59:17;3.93;;;1.63;;
75441;SDS011;64019;48.312;14.226;2024-02-04T12:01:49;2.47;;;1.50;;
75441;SDS011;64019;48.312;14.226;2024-02-04T12:04:20;2.17;;;1.20;;
75441;SDS011;64019;48.312;14.226;2024-02-04T12:06:46;2.17;;;1.33;;
75441;SDS011;64019;48.312;14.226;2024-02-04T12:09:13;3.50;;;1.20;;
75441;SDS011;64019;48.312;14.226;2024-02-04T12:11:43;0.97;;;0.87;;
75441;SDS011;64019;48.312;14.226;2024-02-04T12:14:09;1.80;;;1.30;;
75441;SDS011;64019;48.312;14.226;2024-02-04T12:16:35;1.70;;;1.33;;
75441;SDS011;64019;48.312;14.226;2024-02-04T12:19:01;1.20;;;0.97;;
75441;SDS011;64019;48.312;14.226;2024-02-04T12:21:31;1.20;;;1.10;;
75441;SDS011;64019;48.312;14.226;2024-02-04T12:23:58;1.47;;;1.20;;
75441;SDS011;64019;48.312;14.226;2024-02-04T12:26:24;3.20;;;1.20;;
75441;SDS011;64019;48.312;14.226;2024-02-04T12:28:50;3.93;;;1.50;;
75441;SDS011;64019;48.312;14.226;2024-02-04T12:31:17;1.53;;;0.97;;
75441;SDS011;64019;48.312;14.226;2024-02-04T12:33:51;2.10;;;1.00;;
75441;SDS011;64019;48.312;14.226;2024-02-04T12:36:19;3.40;;;1.30;;
75441;SDS011;64019;48.312;14.226;2024-02-04T12:38:54;1.20;;;0.90;;
75441;SDS011;64019;48.312;14.226;2024-02-04T12:41:23;1.90;;;1.00;;
75441;SDS011;64019;48.312;14.226;2024-02-04T12:43:50;4.90;;;1.20;;
75441;SDS011;64019;48.312;14.226;2024-02-04T12:46:20;1.30;;;1.00;;
75441;SDS011;64019;48.312;14.226;2024-02-04T12:51:37;1.73;;;0.83;;
75441;SDS011;64019;48.312;14.226;2024-02-04T12:54:07;1.57;;;0.80;;
75441;SDS011;64019;48.312;14.226;2024-02-04T12:56:47;1.53;;;1.00;;
75441;SDS011;64019;48.312;14.226;2024-02-04T12:59:28;4.97;;;1.13;;
75441;SDS011;64019;48.312;14.226;2024-02-04T13:02:06;0.90;;;0.87;;
75441;SDS011;64019;48.312;14.226;2024-02-04T13:04:33;0.87;;;0.80;;
75441;SDS011;64019;48.312;14.226;2024-02-04T13:07:09;1.93;;;0.80;;
75441;SDS011;64019;48.312;14.226;2024-02-04T13:09:39;1.60;;;1.00;;
75441;SDS011;64019;48.312;14.226;2024-02-04T13:12:06;1.80;;;1.03;;
75441;SDS011;64019;48.312;14.226;2024-02-04T13:14:34;1.60;;;0.80;;
75441;SDS011;64019;48.312;14.226;2024-02-04T13:17:03;1.90;;;0.63;;
75441;SDS011;64019;48.312;14.226;2024-02-04T13:19:35;1.00;;;0.80;;
75441;SDS011;64019;48.312;14.226;2024-02-04T13:22:04;1.83;;;0.83;;
75441;SDS011;64019;48.312;14.226;2024-02-04T13:24:31;1.03;;;0.67;;
75441;SDS011;64019;48.312;14.226;2024-02-04T13:26:58;1.23;;;0.80;;
75441;SDS011;64019;48.312;14.226;2024-02-04T13:29:26;1.00;;;0.80;;
75441;SDS011;64019;48.312;14.226;2024-02-04T13:31:53;1.37;;;0.97;;
75441;SDS011;64019;48.312;14.226;2024-02-04T13:34:19;3.53;;;1.00;;
75441;SDS011;64019;48.312;14.226;2024-02-04T13:36:51;1.30;;;0.93;;
75441;SDS011;64019;48.312;14.226;2024-02-04T13:39:17;1.57;;;0.70;;
75441;SDS011;64019;48.312;14.226;2024-02-04T13:41:43;2.07;;;1.20;;
75441;SDS011;64019;48.312;14.226;2024-02-04T13:44:09;1.17;;;1.00;;
75441;SDS011;64019;48.312;14.226;2024-02-04T13:46:35;1.43;;;0.90;;
75441;SDS011;64019;48.312;14.226;2024-02-04T13:49:02;1.73;;;0.83;;
75441;SDS011;64019;48.312;14.226;2024-02-04T13:51:29;1.77;;;1.03;;
75441;SDS011;64019;48.312;14.226;2024-02-04T13:53:55;1.00;;;0.90;;
75441;SDS011;64019;48.312;14.226;2024-02-04T13:56:20;0.83;;;0.83;;
75441;SDS011;64019;48.312;14.226;2024-02-04T13:58:46;0.70;;;0.70;;
75441;SDS011;64019;48.312;14.226;2024-02-04T14:01:13;1.60;;;0.70;;
75441;SDS011;64019;48.312;14.226;2024-02-04T14:03:40;0.90;;;0.80;;
75441;SDS011;64019;48.312;14.226;2024-02-04T14:06:07;1.23;;;0.70;;
75441;SDS011;64019;48.312;14.226;2024-02-04T14:08:33;1.43;;;1.10;;
75441;SDS011;64019;48.312;14.226;2024-02-04T14:10:59;0.90;;;0.77;;
75441;SDS011;64019;48.312;14.226;2024-02-04T14:13:26;2.63;;;0.60;;
75441;SDS011;64019;48.312;14.226;2024-02-04T14:15:53;0.80;;;0.80;;
75441;SDS011;64019;48.312;14.226;2024-02-04T14:18:18;0.60;;;0.60;;
75441;SDS011;64019;48.312;14.226;2024-02-04T14:20:45;1.50;;;0.90;;
75441;SDS011;64019;48.312;14.226;2024-02-04T14:23:11;0.80;;;0.80;;
75441;SDS011;64019;48.312;14.226;2024-02-04T14:25:38;2.33;;;0.77;;
75441;SDS011;64019;48.312;14.226;2024-02-04T14:28:03;0.80;;;0.70;;
75441;SDS011;64019;48.312;14.226;2024-02-04T14:30:29;0.83;;;0.80;;
75441;SDS011;64019;48.312;14.226;2024-02-04T14:32:57;1.17;;;0.87;;
75441;SDS011;64019;48.312;14.226;2024-02-04T14:35:22;1.93;;;1.00;;
75441;SDS011;64019;48.312;14.226;2024-02-04T14:37:48;1.00;;;0.90;;
75441;SDS011;64019;48.312;14.226;2024-02-04T14:40:14;1.33;;;0.80;;
75441;SDS011;64019;48.312;14.226;2024-02-04T14:42:39;1.23;;;0.90;;
75441;SDS011;64019;48.312;14.226;2024-02-04T14:45:06;1.10;;;0.80;;
75441;SDS011;64019;48.312;14.226;2024-02-04T14:47:32;1.20;;;1.00;;
75441;SDS011;64019;48.312;14.226;2024-02-04T14:49:57;0.80;;;0.80;;